Time;durP1;ratioP1;P1;durP2;ratioP2;P2;SDS_P1;SDS_P2;PMS_P1;PMS_P2;Temp;Humidity;BMP_temperature;BMP_pressure;BME280_temperature;BME280_humidity;BME280_pressure;Samples;Min_cycle;Max_cycle;Signal;HPM_P1;HPM_P2
2022/01/05 00:00:30;;;;;;;7.38;1.90;;;6.10;99.90;;;;;;4996555;28;20386;-74
2022/01/05 00:02:56;;;;;;;3.33;1.30;;;6.10;99.90;;;;;;4996510;28;20046;-72
2022/01/05 00:05:21;;;;;;;12.05;2.08;;;6.00;99.90;;;;;;4996471;28;20026;-74
2022/01/05 00:07:47;;;;;;;5.10;2.05;;;6.00;99.90;;;;;;4996417;28;20481;-74
2022/01/05 00:10:13;;;;;;;6.25;1.58;;;6.00;99.90;;;;;;4996137;28;20103;-73
2022/01/05 00:12:39;;;;;;;8.43;1.95;;;6.00;99.90;;;;;;4996273;28;20030;-74
2022/01/05 00:15:05;;;;;;;6.53;1.55;;;5.90;99.90;;;;;;4994728;28;20029;-73
2022/01/05 00:17:31;;;;;;;6.07;1.85;;;6.00;99.90;;;;;;4996014;28;20022;-73
2022/01/05 00:19:56;;;;;;;6.57;1.65;;;6.00;99.90;;;;;;4995973;28;20398;-73
2022/01/05 00:22:23;;;;;;;9.02;2.47;;;6.00;99.90;;;;;;4995875;28;20034;-75
2022/01/05 00:24:48;;;;;;;5.05;2.35;;;5.90;99.90;;;;;;4995860;28;20029;-73
2022/01/05 00:27:14;;;;;;;10.57;2.28;;;6.00;99.90;;;;;;4995755;28;20030;-74
2022/01/05 00:29:40;;;;;;;9.88;2.72;;;6.00;99.90;;;;;;4995755;28;20491;-74
2022/01/05 00:32:07;;;;;;;8.82;2.25;;;6.00;99.90;;;;;;4995649;28;20034;-73
2022/01/05 00:34:33;;;;;;;8.27;1.83;;;6.00;99.90;;;;;;4995931;28;20018;-73
2022/01/05 00:36:59;;;;;;;8.77;1.88;;;6.00;99.90;;;;;;4995909;28;20073;-73
2022/01/05 00:39:24;;;;;;;9.35;1.98;;;6.00;99.90;;;;;;4995563;28;20033;-73
2022/01/05 00:41:50;;;;;;;9.95;2.38;;;6.00;99.90;;;;;;4995432;28;20030;-74
2022/01/05 00:44:16;;;;;;;13.27;2.95;;;6.00;99.90;;;;;;4995235;28;20033;-74
2022/01/05 00:46:41;;;;;;;5.13;1.65;;;6.00;99.90;;;;;;4995478;28;20030;-73
2022/01/05 00:49:07;;;;;;;7.05;2.00;;;5.90;99.90;;;;;;4995372;28;20033;-73
2022/01/05 00:51:33;;;;;;;10.15;2.10;;;5.90;99.90;;;;;;4995367;28;20026;-73
2022/01/05 00:54:00;;;;;;;10.32;2.95;;;5.90;99.90;;;;;;4995437;28;20097;-75
2022/01/05 00:56:26;;;;;;;12.15;2.20;;;5.90;99.90;;;;;;4995503;28;20027;-74
2022/01/05 00:58:51;;;;;;;5.82;1.92;;;5.90;99.90;;;;;;4995494;28;20049;-74
2022/01/05 01:01:17;;;;;;;7.93;1.55;;;5.90;99.90;;;;;;4995123;28;20033;-74
2022/01/05 01:03:42;;;;;;;10.02;2.58;;;5.90;99.90;;;;;;4995093;28;20030;-73
2022/01/05 01:06:08;;;;;;;12.32;2.90;;;5.90;99.90;;;;;;4995344;28;20022;-73
2022/01/05 01:08:34;;;;;;;13.88;2.40;;;5.80;99.90;;;;;;4995285;28;20026;-73
2022/01/05 01:10:59;;;;;;;6.85;2.10;;;5.80;99.90;;;;;;4994935;28;20062;-74
2022/01/05 01:13:25;;;;;;;8.68;2.22;;;5.80;99.90;;;;;;4994841;28;20031;-73
2022/01/05 01:15:51;;;;;;;7.72;2.53;;;5.90;99.90;;;;;;4994889;28;20099;-73
2022/01/05 01:18:18;;;;;;;5.45;1.50;;;5.90;99.90;;;;;;4995126;28;20026;-74
2022/01/05 01:20:47;;;;;;;7.57;2.20;;;5.90;99.90;;;;;;4995090;28;20386;-74
2022/01/05 01:23:14;;;;;;;4.90;1.77;;;5.90;99.90;;;;;;4994787;28;20030;-74
2022/01/05 01:25:39;;;;;;;8.77;2.40;;;5.80;99.90;;;;;;4994974;28;20022;-73
2022/01/05 01:28:06;;;;;;;6.00;1.88;;;5.80;99.90;;;;;;4994965;28;20038;-73
2022/01/05 01:30:32;;;;;;;11.07;1.52;;;5.80;99.90;;;;;;4994626;28;20056;-73
2022/01/05 01:32:58;;;;;;;14.30;2.53;;;5.80;99.90;;;;;;4993221;28;20029;-72
2022/01/05 01:35:25;;;;;;;12.90;2.38;;;5.70;99.90;;;;;;4994539;28;20530;-74
2022/01/05 01:37:53;;;;;;;8.73;1.90;;;5.80;99.90;;;;;;4994350;28;20097;-73
2022/01/05 01:40:19;;;;;;;5.97;1.83;;;5.70;99.90;;;;;;4994674;28;20015;-73
2022/01/05 01:42:45;;;;;;;10.07;2.25;;;5.70;99.90;;;;;;4994718;28;20036;-74
2022/01/05 01:45:11;;;;;;;9.10;2.20;;;5.70;99.90;;;;;;4994150;28;20507;-73
2022/01/05 01:47:37;;;;;;;7.22;2.10;;;5.70;99.90;;;;;;4994312;28;20036;-73
2022/01/05 01:50:05;;;;;;;7.97;2.17;;;5.70;99.90;;;;;;4994561;28;20104;-73
2022/01/05 01:52:30;;;;;;;11.30;2.00;;;5.60;99.90;;;;;;4994157;28;20069;-74
2022/01/05 01:54:56;;;;;;;11.30;2.60;;;5.60;99.90;;;;;;4994255;28;20026;-74
2022/01/05 01:57:22;;;;;;;6.88;2.10;;;5.60;99.90;;;;;;4994473;28;20352;-73
2022/01/05 01:59:48;;;;;;;9.40;2.20;;;5.60;99.90;;;;;;4994434;28;20026;-74
2022/01/05 02:02:17;;;;;;;8.57;2.00;;;5.50;99.90;;;;;;4994101;28;20487;-73
2022/01/05 02:04:44;;;;;;;8.70;2.45;;;5.50;99.90;;;;;;4994109;28;20045;-73
2022/01/05 02:07:11;;;;;;;13.50;2.90;;;5.50;99.90;;;;;;4994346;28;20023;-73
2022/01/05 02:09:40;;;;;;;11.70;2.53;;;5.40;99.90;;;;;;4994067;28;20431;-73
2022/01/05 02:12:06;;;;;;;9.10;2.17;;;5.40;99.90;;;;;;4993915;28;20019;-73
2022/01/05 02:14:32;;;;;;;9.60;2.00;;;5.40;99.90;;;;;;4993881;28;20505;-74
2022/01/05 02:17:02;;;;;;;8.20;2.70;;;5.40;99.90;;;;;;4993936;28;20073;-73
2022/01/05 02:19:28;;;;;;;9.48;1.77;;;5.40;99.90;;;;;;4992441;28;20041;-72
2022/01/05 02:21:54;;;;;;;15.65;2.70;;;5.30;99.90;;;;;;4994169;28;20031;-73
2022/01/05 02:24:19;;;;;;;8.48;2.30;;;5.30;99.90;;;;;;4992637;28;20125;-73
2022/01/05 02:26:45;;;;;;;9.70;2.22;;;5.30;99.90;;;;;;4993846;28;20034;-74
2022/01/05 02:29:11;;;;;;;11.13;2.22;;;5.30;99.90;;;;;;4992572;28;20030;-73
2022/01/05 02:31:36;;;;;;;12.05;2.42;;;5.30;99.90;;;;;;4993824;28;20030;-74
2022/01/05 02:34:02;;;;;;;5.97;2.38;;;5.20;99.90;;;;;;4993995;28;20034;-74
2022/01/05 02:36:28;;;;;;;9.90;2.05;;;5.30;99.90;;;;;;4993752;28;20018;-74
2022/01/05 02:38:54;;;;;;;9.88;2.38;;;5.30;99.90;;;;;;4993777;28;20486;-73
2022/01/05 02:41:20;;;;;;;8.07;1.83;;;5.40;99.90;;;;;;4993941;28;20033;-73
2022/01/05 02:43:47;;;;;;;5.72;1.80;;;5.40;99.90;;;;;;4993711;28;20026;-73
2022/01/05 02:46:21;;;;;;;8.93;1.88;;;5.40;99.90;;;;;;4993266;28;20514;-73
2022/01/05 02:48:49;;;;;;;6.57;2.30;;;5.50;99.90;;;;;;4993673;28;20037;-73
2022/01/05 02:51:15;;;;;;;8.68;1.88;;;5.50;99.90;;;;;;4996743;28;20037;-74
2022/01/05 02:53:41;;;;;;;5.85;1.80;;;5.50;99.90;;;;;;4997307;28;20035;-74
2022/01/05 02:56:07;;;;;;;9.68;2.20;;;5.50;99.90;;;;;;4998021;28;20374;-73
2022/01/05 02:58:32;;;;;;;7.93;1.90;;;5.50;99.90;;;;;;4997469;28;20018;-72
2022/01/05 03:00:58;;;;;;;7.80;1.95;;;5.60;99.90;;;;;;4997408;28;20501;-74
2022/01/05 03:03:24;;;;;;;8.82;2.83;;;5.60;99.90;;;;;;4997388;28;20026;-72
2022/01/05 03:05:49;;;;;;;4.97;1.50;;;5.50;99.90;;;;;;4997587;28;20034;-74
2022/01/05 03:08:16;;;;;;;13.10;2.38;;;5.50;99.90;;;;;;4997514;28;20034;-74
2022/01/05 03:10:41;;;;;;;9.13;1.80;;;5.50;99.90;;;;;;4997254;28;20054;-73
2022/01/05 03:13:07;;;;;;;5.03;1.80;;;5.50;99.90;;;;;;4997123;28;20030;-74
2022/01/05 03:15:35;;;;;;;8.05;1.70;;;5.50;99.90;;;;;;4997155;28;20045;-72
2022/01/05 03:18:05;;;;;;;6.05;1.40;;;5.50;99.90;;;;;;4995823;28;20080;-74
2022/01/05 03:20:31;;;;;;;8.77;1.85;;;5.50;99.90;;;;;;4995824;28;20030;-73
2022/01/05 03:22:58;;;;;;;9.68;1.98;;;5.50;99.90;;;;;;4997044;28;20037;-72
2022/01/05 03:25:24;;;;;;;12.35;2.38;;;5.50;99.90;;;;;;4996829;28;20041;-72
2022/01/05 03:27:51;;;;;;;11.57;2.60;;;5.40;99.90;;;;;;4996948;28;20030;-74
2022/01/05 03:30:23;;;;;;;4.63;1.85;;;5.30;99.90;;;;;;4995646;28;20077;-73
2022/01/05 03:35:25;;;;;;;10.57;1.95;;;5.40;99.90;;;;;;4997178;28;20489;-73
2022/01/05 03:37:50;;;;;;;7.38;2.15;;;5.40;99.90;;;;;;4996747;28;20025;-73
2022/01/05 03:40:16;;;;;;;4.65;1.73;;;5.40;99.90;;;;;;4996607;28;20391;-74
2022/01/05 03:42:42;;;;;;;12.10;2.75;;;5.40;99.90;;;;;;4996678;28;20034;-73
2022/01/05 03:45:08;;;;;;;7.95;1.80;;;5.50;99.90;;;;;;4996387;28;20046;-74
2022/01/05 03:47:34;;;;;;;9.95;2.13;;;5.40;99.90;;;;;;4995782;28;20566;-73
2022/01/05 03:49:59;;;;;;;8.38;1.67;;;5.40;99.90;;;;;;4996516;28;20105;-73
2022/01/05 03:52:25;;;;;;;4.60;1.50;;;5.30;99.90;;;;;;4996685;28;20031;-72
2022/01/05 03:54:51;;;;;;;7.68;1.98;;;5.30;99.90;;;;;;4996450;28;20026;-72
2022/01/05 03:57:16;;;;;;;6.22;1.45;;;5.30;99.90;;;;;;4996678;28;20356;-73
2022/01/05 03:59:42;;;;;;;9.63;1.75;;;5.20;99.90;;;;;;4996378;28;20054;-73
2022/01/05 04:02:08;;;;;;;7.32;2.15;;;5.20;99.90;;;;;;4995926;28;20026;-74
2022/01/05 04:04:33;;;;;;;6.43;1.83;;;5.20;99.90;;;;;;4996775;28;20109;-74
2022/01/05 04:06:59;;;;;;;7.30;1.77;;;5.20;99.90;;;;;;4994960;28;20061;-74
2022/01/05 04:09:25;;;;;;;11.48;2.58;;;5.20;99.90;;;;;;4996182;28;20023;-74
2022/01/05 04:11:50;;;;;;;8.73;3.10;;;5.10;99.90;;;;;;4996120;28;20049;-73
2022/01/05 04:14:16;;;;;;;7.47;1.58;;;5.10;99.90;;;;;;4996004;28;20034;-73
2022/01/05 04:16:42;;;;;;;9.18;1.75;;;5.10;99.90;;;;;;4996028;28;20054;-73
2022/01/05 04:19:07;;;;;;;7.68;1.95;;;5.10;99.90;;;;;;4994653;28;20030;-73
2022/01/05 04:21:33;;;;;;;9.15;2.10;;;5.00;99.90;;;;;;4995957;28;20251;-73
2022/01/05 04:23:58;;;;;;;8.00;2.20;;;5.00;99.90;;;;;;4996136;28;20026;-73
2022/01/05 04:26:24;;;;;;;8.18;1.95;;;5.00;99.90;;;;;;4995836;28;20033;-74
2022/01/05 04:28:50;;;;;;;11.02;2.83;;;5.00;99.90;;;;;;4995757;28;20064;-74
2022/01/05 04:31:15;;;;;;;11.68;2.38;;;5.00;99.90;;;;;;4995776;28;20105;-74
2022/01/05 04:33:41;;;;;;;5.07;2.20;;;5.00;99.90;;;;;;4995666;28;20491;-74
2022/01/05 04:36:07;;;;;;;10.63;2.05;;;4.90;99.90;;;;;;4994359;28;20058;-72
2022/01/05 04:38:33;;;;;;;12.35;2.45;;;4.90;99.90;;;;;;4996179;28;20022;-73
2022/01/05 04:40:59;;;;;;;8.45;2.35;;;4.80;99.90;;;;;;4995875;28;20117;-74
2022/01/05 04:43:25;;;;;;;8.13;1.88;;;4.80;99.90;;;;;;4995796;28;20036;-73
2022/01/05 04:45:50;;;;;;;19.83;2.10;;;4.80;99.90;;;;;;4995353;28;20042;-74
2022/01/05 04:48:16;;;;;;;5.72;1.92;;;4.80;99.90;;;;;;4995702;28;20113;-72
2022/01/05 04:50:41;;;;;;;4.90;1.65;;;4.70;99.90;;;;;;4995663;28;20026;-74
2022/01/05 04:53:10;;;;;;;8.23;2.35;;;4.70;99.90;;;;;;4995592;28;20045;-74
2022/01/05 04:55:35;;;;;;;7.28;1.55;;;4.70;99.90;;;;;;4995330;28;20050;-72
2022/01/05 04:58:01;;;;;;;7.72;1.98;;;4.70;99.90;;;;;;4995244;28;20038;-73
2022/01/05 05:00:27;;;;;;;8.77;2.78;;;4.70;99.90;;;;;;4995170;28;20019;-73
2022/01/05 05:02:52;;;;;;;12.32;1.90;;;4.70;99.90;;;;;;4995446;28;20031;-73
2022/01/05 05:05:18;;;;;;;6.80;1.73;;;4.70;99.90;;;;;;4995411;28;20502;-72
2022/01/05 05:07:43;;;;;;;8.95;1.90;;;4.70;99.90;;;;;;4995082;28;20026;-75
2022/01/05 05:10:09;;;;;;;8.27;1.70;;;4.70;99.90;;;;;;4995035;28;20101;-73
2022/01/05 05:12:35;;;;;;;6.45;1.75;;;4.60;99.90;;;;;;4994434;28;20078;-73
2022/01/05 05:15:00;;;;;;;10.95;2.10;;;4.60;99.90;;;;;;4995234;28;20018;-72
2022/01/05 05:17:26;;;;;;;7.95;2.05;;;4.60;99.90;;;;;;4994898;28;20620;-72
2022/01/05 05:19:51;;;;;;;7.80;3.58;;;4.60;99.90;;;;;;4994867;28;20025;-73
2022/01/05 05:22:17;;;;;;;7.88;1.90;;;4.60;99.90;;;;;;4995152;28;20022;-74
2022/01/05 05:24:43;;;;;;;8.32;1.90;;;4.60;99.90;;;;;;4995297;28;20101;-74
2022/01/05 05:27:08;;;;;;;7.15;1.45;;;4.70;99.90;;;;;;4994981;28;20073;-72
2022/01/05 05:29:34;;;;;;;7.65;2.08;;;4.70;99.90;;;;;;4995179;28;20077;-73
2022/01/05 05:32:00;;;;;;;6.10;1.88;;;4.70;99.90;;;;;;4994615;28;20109;-74
2022/01/05 05:34:26;;;;;;;4.32;1.80;;;4.70;99.90;;;;;;4994779;28;20034;-73
2022/01/05 05:36:52;;;;;;;8.07;1.45;;;4.70;99.90;;;;;;4995058;28;20029;-73
2022/01/05 05:39:18;;;;;;;5.22;1.50;;;4.70;99.90;;;;;;4995082;28;20386;-73
2022/01/05 05:41:43;;;;;;;8.35;2.53;;;4.80;99.90;;;;;;4994343;28;20030;-72
2022/01/05 05:44:09;;;;;;;8.70;2.28;;;4.70;99.90;;;;;;4994198;28;20030;-74
2022/01/05 05:46:35;;;;;;;7.50;1.73;;;4.70;99.90;;;;;;4994667;28;20450;-74
2022/01/05 05:49:00;;;;;;;13.48;2.10;;;4.70;99.90;;;;;;4994352;28;20018;-74
2022/01/05 05:51:26;;;;;;;5.68;2.20;;;4.70;99.90;;;;;;4994338;28;20394;-73
2022/01/05 05:53:52;;;;;;;12.15;2.92;;;4.70;99.90;;;;;;4992968;28;20398;-73
2022/01/05 05:56:17;;;;;;;6.82;1.77;;;4.60;99.90;;;;;;4994767;28;20113;-72
2022/01/05 05:58:43;;;;;;;6.82;1.80;;;4.70;99.90;;;;;;4994464;28;20054;-73
2022/01/05 06:01:09;;;;;;;9.25;2.13;;;4.60;99.90;;;;;;4994442;28;20515;-73
2022/01/05 06:03:34;;;;;;;11.77;2.17;;;4.60;99.90;;;;;;4994380;28;20486;-74
2022/01/05 06:06:00;;;;;;;8.65;2.28;;;4.60;99.90;;;;;;4994087;28;20380;-73
2022/01/05 06:08:26;;;;;;;7.30;2.22;;;4.60;99.90;;;;;;4992791;28;20092;-73
2022/01/05 06:10:51;;;;;;;10.75;2.40;;;4.60;99.90;;;;;;4992785;28;20030;-74
2022/01/05 06:13:17;;;;;;;10.27;1.80;;;4.70;99.90;;;;;;4993923;28;20184;-73
2022/01/05 06:15:43;;;;;;;9.50;2.20;;;4.60;99.90;;;;;;4993979;28;20030;-73
2022/01/05 06:18:08;;;;;;;7.22;1.92;;;4.50;99.90;;;;;;4993957;28;20092;-73
2022/01/05 06:20:34;;;;;;;7.60;1.88;;;4.30;99.90;;;;;;4993939;28;20459;-74
2022/01/05 06:23:00;;;;;;;7.70;2.05;;;4.50;99.90;;;;;;4992670;28;20541;-74
2022/01/05 06:25:25;;;;;;;9.02;1.88;;;4.60;99.90;;;;;;4993793;28;20529;-74
2022/01/05 06:27:51;;;;;;;10.68;1.90;;;4.60;99.90;;;;;;4992575;28;20026;-73
2022/01/05 06:30:17;;;;;;;8.15;2.10;;;4.60;99.90;;;;;;4994094;28;20061;-73
2022/01/05 06:32:45;;;;;;;7.60;2.00;;;4.60;99.90;;;;;;4992476;28;20028;-73
2022/01/05 06:35:12;;;;;;;10.10;4.10;;;4.60;99.90;;;;;;4994046;28;20026;-72
2022/01/05 06:37:37;;;;;;;29.70;17.35;;;4.50;99.90;;;;;;4994031;28;20026;-73
2022/01/05 06:40:04;;;;;;;10.80;5.10;;;4.40;99.90;;;;;;4993744;28;20029;-73
2022/01/05 06:42:29;;;;;;;31.38;17.48;;;4.40;99.90;;;;;;4993179;28;20138;-72
2022/01/05 06:44:55;;;;;;;20.33;7.53;;;4.40;99.90;;;;;;4993803;28;20129;-73
2022/01/05 06:47:21;;;;;;;9.77;4.45;;;4.40;99.90;;;;;;4993696;28;20019;-74
2022/01/05 06:49:46;;;;;;;8.05;3.65;;;4.30;99.90;;;;;;4993937;28;20026;-73
2022/01/05 06:52:12;;;;;;;12.00;3.42;;;4.10;99.90;;;;;;4993881;28;20022;-73
2022/01/05 06:54:39;;;;;;;10.75;3.92;;;4.10;99.90;;;;;;4993666;28;20445;-74
2022/01/05 06:57:06;;;;;;;9.20;3.65;;;4.20;99.90;;;;;;4992386;28;20023;-74
2022/01/05 06:59:32;;;;;;;10.85;3.75;;;4.30;99.90;;;;;;4992318;28;20026;-75
2022/01/05 07:01:58;;;;;;;10.18;3.15;;;4.20;99.90;;;;;;4993851;28;20053;-71
2022/01/05 07:04:23;;;;;;;6.47;4.28;;;4.10;99.90;;;;;;4993541;28;20030;-73
2022/01/05 07:06:49;;;;;;;9.80;3.90;;;4.00;99.90;;;;;;4992294;28;20396;-73
2022/01/05 07:09:14;;;;;;;11.07;6.65;;;3.90;99.90;;;;;;4993545;28;20121;-73
2022/01/05 07:11:40;;;;;;;18.20;12.55;;;3.90;99.90;;;;;;4993496;28;20034;-74
2022/01/05 07:14:06;;;;;;;15.63;9.02;;;3.90;99.90;;;;;;4993415;28;20034;-74
2022/01/05 07:16:32;;;;;;;6.95;2.55;;;4.00;99.90;;;;;;4993450;28;20029;-73
2022/01/05 07:18:58;;;;;;;7.03;3.05;;;4.00;99.90;;;;;;4993455;28;20030;-74
2022/01/05 07:21:23;;;;;;;10.27;3.65;;;4.00;99.90;;;;;;4993713;28;20057;-74
2022/01/05 07:23:49;;;;;;;8.70;2.78;;;4.00;99.90;;;;;;4993363;28;20037;-74
2022/01/05 07:26:14;;;;;;;9.85;5.35;;;4.00;99.90;;;;;;4993400;28;20019;-73
2022/01/05 07:28:40;;;;;;;8.50;3.88;;;4.10;99.90;;;;;;4993351;28;20022;-74
2022/01/05 07:31:06;;;;;;;8.77;2.60;;;4.10;99.90;;;;;;4993296;28;20062;-73
2022/01/05 07:33:31;;;;;;;11.40;2.55;;;4.00;99.90;;;;;;4993188;28;20120;-74
2022/01/05 07:35:57;;;;;;;17.98;4.60;;;4.10;99.90;;;;;;4994455;28;20021;-73
2022/01/05 07:38:23;;;;;;;7.10;3.22;;;4.00;99.90;;;;;;4995488;28;20073;-73
2022/01/05 07:40:48;;;;;;;7.28;2.33;;;4.00;99.90;;;;;;4995384;28;20046;-73
2022/01/05 07:43:14;;;;;;;19.10;11.05;;;4.00;99.90;;;;;;4996672;28;20026;-74
2022/01/05 07:45:40;;;;;;;13.75;10.27;;;3.90;99.90;;;;;;4996446;28;20499;-75
2022/01/05 07:48:06;;;;;;;16.67;8.68;;;3.80;99.90;;;;;;4996552;28;20471;-74
2022/01/05 07:50:32;;;;;;;11.00;5.22;;;3.80;99.90;;;;;;4996554;28;20437;-73
2022/01/05 07:53:01;;;;;;;9.20;3.78;;;3.90;99.90;;;;;;4996407;28;20034;-73
2022/01/05 07:55:28;;;;;;;11.13;4.28;;;4.00;99.90;;;;;;4996406;28;20014;-73
2022/01/05 07:57:53;;;;;;;11.88;5.03;;;3.90;99.90;;;;;;4996466;28;20590;-73
2022/01/05 08:00:19;;;;;;;11.40;4.20;;;3.90;99.90;;;;;;4996614;28;20023;-74
2022/01/05 08:02:44;;;;;;;10.10;3.80;;;3.90;99.90;;;;;;4996330;28;20033;-73
2022/01/05 08:05:10;;;;;;;11.18;3.95;;;3.90;99.90;;;;;;4994999;28;20081;-74
2022/01/05 08:07:36;;;;;;;19.77;7.65;;;3.90;99.90;;;;;;4996451;28;20494;-73
2022/01/05 08:10:02;;;;;;;13.85;5.80;;;4.00;99.90;;;;;;4996148;28;20031;-73
2022/01/05 08:12:27;;;;;;;12.38;5.03;;;4.00;99.90;;;;;;4996072;28;20505;-74
2022/01/05 08:14:53;;;;;;;8.35;3.40;;;4.10;99.90;;;;;;4996069;28;20026;-73
2022/01/05 08:17:19;;;;;;;9.05;3.17;;;4.10;99.90;;;;;;4996078;28;20026;-74
2022/01/05 08:19:45;;;;;;;14.00;3.55;;;4.20;99.90;;;;;;4996268;28;20022;-73
2022/01/05 08:22:11;;;;;;;10.18;3.78;;;4.20;99.90;;;;;;4996258;28;20023;-75
2022/01/05 08:24:37;;;;;;;12.57;6.93;;;4.30;99.90;;;;;;4995920;28;20097;-73
2022/01/05 08:27:03;;;;;;;32.42;19.60;;;4.30;99.90;;;;;;4995891;28;20403;-73
2022/01/05 08:29:28;;;;;;;10.15;2.83;;;4.30;99.90;;;;;;4995869;28;20023;-73
2022/01/05 08:31:54;;;;;;;33.33;16.33;;;4.30;99.90;;;;;;4995745;28;20039;-74
2022/01/05 08:34:20;;;;;;;27.10;11.30;;;4.20;99.90;;;;;;4995649;28;20026;-73
2022/01/05 08:36:45;;;;;;;9.10;2.85;;;4.30;99.90;;;;;;4995680;28;20055;-73
2022/01/05 08:39:11;;;;;;;13.63;5.88;;;4.30;99.90;;;;;;4995668;28;20411;-73
2022/01/05 08:41:37;;;;;;;11.05;5.38;;;4.30;99.90;;;;;;4995517;28;20391;-74
2022/01/05 08:44:03;;;;;;;11.50;5.20;;;4.40;99.90;;;;;;4995330;28;20521;-74
2022/01/05 08:46:28;;;;;;;11.35;4.82;;;4.30;99.90;;;;;;4995972;28;20030;-73
2022/01/05 08:48:54;;;;;;;24.42;11.50;;;4.30;99.90;;;;;;4994509;28;20057;-74
2022/01/05 08:51:20;;;;;;;33.00;10.77;;;4.30;99.90;;;;;;4994170;28;20026;-74
2022/01/05 08:53:45;;;;;;;33.58;13.10;;;4.20;99.90;;;;;;4995289;28;20038;-73
2022/01/05 08:56:11;;;;;;;34.03;11.35;;;4.30;99.90;;;;;;4995385;28;20022;-73
2022/01/05 08:58:37;;;;;;;39.13;12.05;;;4.30;99.90;;;;;;4995221;28;20019;-73
2022/01/05 09:01:02;;;;;;;38.75;11.75;;;4.30;99.90;;;;;;4995471;28;20030;-72
2022/01/05 09:03:28;;;;;;;26.77;9.00;;;4.30;99.90;;;;;;4993855;28;20033;-73
2022/01/05 09:05:54;;;;;;;23.63;8.55;;;4.30;99.90;;;;;;4995114;28;20030;-73
2022/01/05 09:08:19;;;;;;;15.45;7.15;;;4.30;99.90;;;;;;4995073;28;20080;-74
2022/01/05 09:10:45;;;;;;;12.95;4.15;;;4.30;99.90;;;;;;4995017;28;20529;-74
2022/01/05 09:13:12;;;;;;;11.35;3.38;;;4.40;99.90;;;;;;4994926;28;20022;-74
2022/01/05 09:15:39;;;;;;;14.20;6.05;;;4.30;99.90;;;;;;4994950;28;20033;-73
2022/01/05 09:18:05;;;;;;;15.95;7.13;;;4.30;99.90;;;;;;4994952;28;20487;-73
2022/01/05 09:20:31;;;;;;;15.85;8.15;;;4.40;99.90;;;;;;4994866;28;20113;-72
2022/01/05 09:22:57;;;;;;;16.88;7.55;;;4.40;99.90;;;;;;4994821;28;20034;-73
2022/01/05 09:25:23;;;;;;;16.83;8.63;;;4.50;99.90;;;;;;4995003;28;20026;-74
2022/01/05 09:27:51;;;;;;;23.83;12.27;;;4.50;99.90;;;;;;4994724;28;20026;-72
2022/01/05 09:30:18;;;;;;;15.95;8.85;;;4.60;99.90;;;;;;4994992;28;20113;-73
2022/01/05 09:32:44;;;;;;;18.50;9.15;;;4.60;99.90;;;;;;4994817;28;20033;-73
2022/01/05 09:35:14;;;;;;;18.10;8.27;;;4.70;99.90;;;;;;4994921;28;20077;-74
2022/01/05 09:37:51;;;;;;;17.23;6.40;;;4.90;99.90;;;;;;4994855;28;20042;-74
2022/01/05 09:43:07;;;;;;;9.63;3.30;;;5.60;99.90;;;;;;4994766;28;20089;-74
2022/01/05 09:45:34;;;;;;;12.13;4.70;;;5.90;99.90;;;;;;4994437;28;20041;-74
2022/01/05 09:48:24;;;;;;;10.07;3.28;;;6.10;99.90;;;;;;4994360;28;20034;-74
2022/01/05 09:51:03;;;;;;;8.87;2.40;;;6.30;99.90;;;;;;4994692;28;20403;-73
2022/01/05 09:53:30;;;;;;;8.70;2.80;;;6.50;99.90;;;;;;4994205;28;20654;-74
2022/01/05 09:55:57;;;;;;;7.60;2.80;;;6.50;99.90;;;;;;4994227;28;20479;-74
2022/01/05 09:58:24;;;;;;;9.35;2.30;;;6.60;99.90;;;;;;4993849;28;20034;-74
2022/01/05 10:00:51;;;;;;;10.65;4.15;;;6.60;99.90;;;;;;4994210;28;20018;-73
2022/01/05 10:03:17;;;;;;;13.30;3.92;;;6.60;99.90;;;;;;4994167;28;20125;-74
2022/01/05 10:05:43;;;;;;;9.30;2.90;;;6.70;99.90;;;;;;4994141;28;20018;-74
2022/01/05 10:08:09;;;;;;;13.93;5.50;;;6.70;99.90;;;;;;4994066;28;20057;-74
2022/01/05 10:10:35;;;;;;;10.70;3.90;;;6.60;99.90;;;;;;4994276;28;20038;-74
2022/01/05 10:13:01;;;;;;;10.23;3.70;;;6.60;99.90;;;;;;4994260;28;20026;-74
2022/01/05 10:15:27;;;;;;;11.60;7.05;;;6.60;99.90;;;;;;4994036;28;20019;-73
2022/01/05 10:18:13;;;;;;;9.73;4.28;;;6.60;99.90;;;;;;4994239;28;20023;-75
2022/01/05 10:20:57;;;;;;;11.52;4.68;;;6.70;99.90;;;;;;4994531;28;20026;-74
2022/01/05 10:23:41;;;;;;;16.75;6.63;;;6.70;99.90;;;;;;4993907;28;20026;-73
2022/01/05 10:26:36;;;;;;;13.35;4.40;;;6.80;99.90;;;;;;4994204;28;20065;-73
2022/01/05 10:29:22;;;;;;;9.73;3.33;;;6.90;99.90;;;;;;4994466;28;20026;-74
2022/01/05 10:31:53;;;;;;;11.00;4.55;;;6.90;99.90;;;;;;4994168;28;20092;-74
2022/01/05 10:34:25;;;;;;;8.60;2.70;;;6.90;99.90;;;;;;4994277;28;20023;-75
2022/01/05 10:36:56;;;;;;;7.30;2.63;;;7.00;99.90;;;;;;4993778;28;20041;-74
2022/01/05 10:39:31;;;;;;;8.90;2.40;;;7.00;99.90;;;;;;4992535;28;20498;-73
2022/01/05 10:42:02;;;;;;;9.07;2.60;;;7.10;99.90;;;;;;4993698;28;20018;-75
2022/01/05 10:44:28;;;;;;;8.35;2.53;;;7.10;99.90;;;;;;4993573;28;20104;-74
2022/01/05 10:46:57;;;;;;;6.82;2.63;;;7.10;99.90;;;;;;4994033;28;20026;-73
2022/01/05 10:49:32;;;;;;;9.88;3.10;;;7.00;99.90;;;;;;4993672;28;20022;-73
2022/01/05 10:52:24;;;;;;;11.35;2.95;;;7.00;99.90;;;;;;4994006;28;20028;-73
2022/01/05 10:54:51;;;;;;;10.60;3.63;;;7.10;99.90;;;;;;4993925;28;20031;-72
2022/01/05 10:57:18;;;;;;;13.65;4.13;;;7.10;99.90;;;;;;4993645;28;20054;-74
2022/01/05 10:59:46;;;;;;;12.77;4.60;;;7.10;99.90;;;;;;4993632;28;20102;-73
2022/01/05 11:02:32;;;;;;;10.85;4.18;;;7.10;99.90;;;;;;4993615;28;20387;-76
2022/01/05 11:05:09;;;;;;;7.50;3.13;;;7.00;99.90;;;;;;4994149;28;20015;-74
2022/01/05 11:07:39;;;;;;;9.63;3.33;;;7.00;99.90;;;;;;4993813;28;20027;-74
2022/01/05 11:10:09;;;;;;;8.55;3.58;;;7.00;99.90;;;;;;4993542;28;20019;-75
2022/01/05 11:12:40;;;;;;;10.00;4.55;;;7.00;99.90;;;;;;4997216;28;20106;-74
2022/01/05 11:15:24;;;;;;;11.90;3.90;;;7.00;99.90;;;;;;4997491;28;20023;-75
2022/01/05 11:18:18;;;;;;;8.38;3.58;;;7.10;99.90;;;;;;4995913;28;20034;-72
2022/01/05 11:20:57;;;;;;;8.95;2.97;;;7.00;99.90;;;;;;4995593;28;20499;-75
2022/01/05 11:23:26;;;;;;;8.18;3.22;;;7.10;99.90;;;;;;4996704;28;20098;-74
2022/01/05 11:25:53;;;;;;;10.98;3.45;;;7.10;99.90;;;;;;4997178;28;20509;-72
2022/01/05 11:28:20;;;;;;;9.43;4.53;;;7.20;99.90;;;;;;4997004;28;20035;-75
2022/01/05 11:30:48;;;;;;;11.65;4.13;;;7.20;99.90;;;;;;4996998;28;20093;-73
2022/01/05 11:33:13;;;;;;;6.75;3.47;;;7.30;99.90;;;;;;4996675;28;20030;-74
2022/01/05 11:35:40;;;;;;;8.95;3.05;;;7.40;99.90;;;;;;4996071;28;20502;-75
2022/01/05 11:38:08;;;;;;;10.68;3.78;;;7.40;99.90;;;;;;4996719;28;20033;-76
2022/01/05 11:40:35;;;;;;;10.68;3.67;;;7.50;99.90;;;;;;4996702;28;20018;-73
2022/01/05 11:43:07;;;;;;;6.70;2.70;;;7.40;99.90;;;;;;4996730;28;20471;-73
2022/01/05 11:45:36;;;;;;;6.65;3.15;;;7.40;99.90;;;;;;4996386;28;20069;-74
2022/01/05 11:48:17;;;;;;;28.75;15.68;;;7.30;99.90;;;;;;4996587;28;20023;-74
2022/01/05 11:50:49;;;;;;;12.18;5.00;;;7.30;99.90;;;;;;4996882;28;20022;-74
2022/01/05 11:53:17;;;;;;;9.52;4.57;;;7.30;99.90;;;;;;4996738;28;20070;-75
2022/01/05 11:56:09;;;;;;;13.80;5.50;;;7.30;99.90;;;;;;4995176;28;20383;-76
2022/01/05 11:58:47;;;;;;;16.27;7.35;;;7.20;99.90;;;;;;4996761;28;20482;-76
2022/01/05 12:01:13;;;;;;;11.98;4.75;;;7.20;99.90;;;;;;4996704;28;20023;-73
2022/01/05 12:03:56;;;;;;;9.32;3.53;;;7.20;99.90;;;;;;4996361;28;20030;-75
2022/01/05 12:06:24;;;;;;;9.50;2.83;;;7.20;99.90;;;;;;4996866;28;20022;-76
2022/01/05 12:09:04;;;;;;;13.07;4.25;;;7.20;99.90;;;;;;4996244;28;20110;-76
2022/01/05 12:11:36;;;;;;;10.00;4.30;;;7.30;99.90;;;;;;4996235;28;20033;-75
2022/01/05 12:14:07;;;;;;;9.10;2.80;;;7.30;99.90;;;;;;4996081;28;20030;-74
2022/01/05 12:17:07;;;;;;;10.25;3.38;;;7.40;99.90;;;;;;4996434;28;20022;-75
2022/01/05 12:19:41;;;;;;;10.65;3.08;;;7.50;99.90;;;;;;4996379;28;20389;-75
2022/01/05 12:22:17;;;;;;;9.88;2.60;;;7.60;99.90;;;;;;4994449;28;20030;-73
2022/01/05 12:25:04;;;;;;;9.27;2.53;;;7.60;99.90;;;;;;4994710;28;20037;-76
2022/01/05 12:27:35;;;;;;;7.97;2.15;;;7.60;99.90;;;;;;4996421;28;20039;-75
2022/01/05 12:30:21;;;;;;;11.52;4.78;;;7.60;99.90;;;;;;4995880;28;20026;-75
2022/01/05 12:33:01;;;;;;;12.23;4.50;;;7.70;99.90;;;;;;4996075;28;20113;-75
2022/01/05 12:35:27;;;;;;;7.32;2.47;;;7.80;99.90;;;;;;4996044;28;20022;-74
2022/01/05 12:38:06;;;;;;;8.15;2.85;;;7.90;99.90;;;;;;4995737;28;20025;-73
2022/01/05 12:40:42;;;;;;;11.90;3.65;;;8.00;99.90;;;;;;4995857;28;20027;-74
2022/01/05 12:43:08;;;;;;;14.48;3.83;;;8.10;99.90;;;;;;4995650;28;20394;-75
2022/01/05 12:45:45;;;;;;;9.30;4.45;;;8.20;99.90;;;;;;4995371;28;20042;-74
2022/01/05 12:48:31;;;;;;;11.60;3.47;;;8.40;99.90;;;;;;4995476;28;20443;-75
2022/01/05 12:51:22;;;;;;;12.70;4.30;;;8.50;99.90;;;;;;4985058;28;20128;-74
2022/01/05 12:53:52;;;;;;;13.02;4.68;;;8.60;99.90;;;;;;4995703;28;20058;-74
2022/01/05 12:56:25;;;;;;;12.25;6.45;;;8.80;99.90;;;;;;4995675;28;20109;-75
2022/01/05 12:58:52;;;;;;;10.63;3.63;;;8.90;99.90;;;;;;4995368;28;20379;-75
2022/01/05 13:01:19;;;;;;;11.00;3.65;;;9.00;99.90;;;;;;4995535;28;20026;-74